createdAt,value
2023-03-29T00:00:45.611Z,4.773
2023-03-29T00:04:48.500Z,5.194
2023-03-29T00:06:50.268Z,4.352
2023-03-29T00:10:55.784Z,3.65
2023-03-29T00:16:58.165Z,0.842
2023-03-29T00:21:01.361Z,2.246
2023-03-29T00:23:02.758Z,1.263
2023-03-29T00:27:05.776Z,0.561
2023-03-29T00:31:09.303Z,0.14
2023-03-29T00:33:11.250Z,0.14
2023-03-29T00:37:14.425Z,0
2023-03-29T00:43:20.017Z,0
2023-03-29T00:47:22.631Z,0.28
2023-03-29T00:49:23.888Z,1.965
2023-03-29T00:53:27.147Z,1.404
2023-03-29T00:59:31.439Z,3.51
2023-03-29T01:03:34.897Z,3.088
2023-03-29T01:05:36.240Z,3.088
2023-03-29T01:09:39.335Z,2.948
2023-03-29T01:13:41.480Z,3.65
2023-03-29T01:15:42.604Z,4.071
2023-03-29T01:19:45.397Z,4.212
2023-03-29T01:25:50.181Z,4.212
2023-03-29T01:29:52.677Z,6.598
2023-03-29T01:31:53.896Z,6.458
2023-03-29T01:35:57.671Z,4.633
2023-03-29T01:42:02.120Z,4.212
2023-03-29T01:46:05.772Z,4.071
2023-03-29T01:48:07.111Z,1.263
2023-03-29T01:52:09.860Z,3.088
2023-03-29T01:56:13.211Z,4.071
2023-03-29T01:58:14.731Z,2.948
2023-03-29T02:02:17.728Z,2.667
2023-03-29T02:06:20.899Z,4.773
2023-03-29T02:08:22.493Z,3.51
2023-03-29T02:12:24.696Z,2.808
2023-03-29T02:14:26.556Z,2.808
2023-03-29T02:16:27.753Z,3.79
2023-03-29T02:18:29.616Z,3.51
2023-03-29T02:24:34.912Z,4.773
2023-03-29T02:30:39.040Z,5.054
2023-03-29T02:34:42.245Z,3.51
2023-03-29T02:40:46.772Z,3.229
2023-03-29T02:44:49.018Z,2.527
2023-03-29T02:46:50.185Z,2.246
2023-03-29T02:50:52.694Z,3.79
2023-03-29T02:54:55.673Z,3.65
2023-03-29T02:56:57.063Z,4.773
2023-03-29T03:00:59.276Z,1.404
2023-03-29T03:07:02.516Z,0.561
2023-03-29T03:11:05.012Z,0.702
2023-03-29T03:13:06.541Z,2.667
2023-03-29T03:17:09.189Z,5.616
2023-03-29T03:23:13.646Z,4.914
2023-03-29T03:27:17.210Z,3.088
2023-03-29T03:29:18.791Z,4.633
2023-03-29T03:33:21.940Z,0
2023-03-29T03:37:24.731Z,2.527
2023-03-29T03:39:26.707Z,3.369
2023-03-29T03:43:29.390Z,4.492
2023-03-29T03:49:33.994Z,2.527
2023-03-29T03:53:36.896Z,1.123
2023-03-29T03:55:38.067Z,2.948
2023-03-29T03:59:40.653Z,1.123
2023-03-29T04:02:25.963Z,0.14
2023-03-29T04:04:27.832Z,0
2023-03-29T04:06:29.444Z,0
2023-03-29T04:10:31.811Z,0
2023-03-29T04:14:34.592Z,0
2023-03-29T04:16:36.005Z,0
2023-03-29T04:20:39.690Z,0
2023-03-29T04:26:44.702Z,0.842
2023-03-29T04:30:48.565Z,0.982
2023-03-29T04:32:49.439Z,0
2023-03-29T04:36:52.641Z,0
2023-03-29T04:42:57.449Z,0
2023-03-29T04:47:00.612Z,0
2023-03-29T04:49:02.161Z,1.263
2023-03-29T04:53:05.194Z,0
2023-03-29T04:57:07.643Z,0
2023-03-29T04:59:09.267Z,0.561
2023-03-29T05:03:12.991Z,0.702
2023-03-29T05:07:15.528Z,1.263
2023-03-29T05:09:16.554Z,0.702
2023-03-29T05:13:20.332Z,0
2023-03-29T05:15:21.655Z,0.702
2023-03-29T05:17:23.082Z,0
2023-03-29T05:19:24.266Z,0
2023-03-29T05:25:28.872Z,0
2023-03-29T05:31:33.500Z,0.28
2023-03-29T05:35:36.065Z,0
2023-03-29T05:41:40.257Z,0
2023-03-29T05:45:43.527Z,0
2023-03-29T05:47:44.627Z,0
2023-03-29T05:51:48.350Z,0
2023-03-29T05:55:51.721Z,0
2023-03-29T05:57:53.475Z,0
2023-03-29T05:59:54.787Z,0
2023-03-29T06:01:56.727Z,0
2023-03-29T06:08:01.374Z,0
2023-03-29T06:10:02.903Z,0
2023-03-29T06:14:05.613Z,0
2023-03-29T06:18:08.706Z,0
2023-03-29T06:24:12.980Z,0
2023-03-29T06:28:16.803Z,0
2023-03-29T06:30:18.253Z,0
2023-03-29T06:34:21.118Z,0
2023-03-29T06:38:24.017Z,0
2023-03-29T06:40:25.497Z,0
2023-03-29T06:44:28.767Z,0
2023-03-29T06:50:32.896Z,0
2023-03-29T06:56:37.012Z,0
2023-03-29T07:00:39.861Z,0
2023-03-29T07:06:43.990Z,0
2023-03-29T07:10:47.076Z,0
2023-03-29T07:12:48.006Z,0
2023-03-29T07:16:49.854Z,0
2023-03-29T07:20:52.637Z,0
2023-03-29T07:22:54.171Z,0.702
2023-03-29T07:27:03.702Z,3.369
2023-03-29T07:33:01.019Z,2.667
2023-03-29T07:37:03.113Z,7.722
2023-03-29T07:39:04.663Z,3.65
2023-03-29T07:43:07.606Z,6.458
2023-03-29T07:49:11.643Z,1.684
2023-03-29T07:53:15.111Z,4.633
2023-03-29T07:55:17.158Z,7.3
2023-03-29T07:59:20.223Z,4.914
2023-03-29T08:03:23.632Z,5.194
2023-03-29T08:05:33.796Z,6.598
2023-03-29T08:09:26.853Z,5.756
2023-03-29T08:13:29.548Z,6.037
2023-03-29T08:15:31.094Z,9.406
2023-03-29T08:19:33.545Z,6.598
2023-03-29T08:21:34.551Z,4.633
2023-03-29T08:25:38.265Z,12.636
2023-03-29T08:31:44.031Z,12.916
2023-03-29T08:37:47.933Z,4.914
2023-03-29T08:41:50.365Z,9.126
2023-03-29T08:47:54.604Z,7.02
2023-03-29T08:51:56.935Z,6.458
2023-03-29T08:56:01.109Z,4.212
2023-03-29T08:58:02.335Z,13.759
2023-03-29T09:02:04.988Z,2.106
2023-03-29T09:04:06.770Z,4.492
2023-03-29T09:06:07.872Z,1.263
2023-03-29T09:08:08.916Z,5.194
2023-03-29T09:14:13.870Z,5.475
2023-03-29T09:16:15.020Z,4.212
2023-03-29T09:20:18.051Z,8.283
2023-03-29T09:24:20.148Z,8.845
2023-03-29T09:30:23.281Z,8.985
2023-03-29T09:34:25.885Z,5.475
2023-03-29T09:36:27.741Z,6.458
2023-03-29T09:40:30.696Z,6.177
2023-03-29T09:44:32.913Z,2.246
2023-03-29T09:46:34.151Z,6.739
2023-03-29T09:50:37.757Z,2.386
2023-03-29T09:56:41.720Z,8.564
2023-03-29T10:00:44.545Z,4.212
2023-03-29T10:02:46.454Z,7.3
2023-03-29T10:06:49.960Z,7.16
2023-03-29T10:12:54.616Z,2.106
2023-03-29T10:16:57.003Z,4.773
2023-03-29T10:18:57.849Z,4.212
2023-03-29T10:23:00.767Z,5.194
2023-03-29T10:27:03.002Z,6.598
2023-03-29T10:29:04.316Z,3.088
2023-03-29T10:33:07.558Z,8.985
2023-03-29T10:37:09.565Z,5.616
2023-03-29T10:39:11.165Z,4.633
2023-03-29T10:43:14.219Z,3.51
2023-03-29T10:45:15.801Z,5.054
2023-03-29T10:48:01.321Z,4.773
2023-03-29T10:54:05.386Z,5.475
2023-03-29T10:56:06.285Z,6.037
2023-03-29T11:00:09.333Z,3.931
2023-03-29T11:06:12.400Z,3.369
2023-03-29T11:10:14.656Z,9.687
2023-03-29T11:12:16.589Z,4.914
2023-03-29T11:16:18.757Z,4.492
2023-03-29T11:20:20.911Z,5.054
2023-03-29T11:22:22.397Z,4.352
2023-03-29T11:26:24.715Z,4.212
2023-03-29T11:32:28.722Z,7.722
2023-03-29T11:36:31.729Z,4.492
2023-03-29T11:38:33.557Z,7.441
2023-03-29T11:42:36.314Z,2.386
2023-03-29T11:48:40.695Z,7.862
2023-03-29T11:52:44.190Z,7.16
2023-03-29T11:54:45.336Z,7.862
2023-03-29T11:58:47.572Z,5.335
2023-03-29T12:02:50.196Z,4.352
2023-03-29T12:04:51.294Z,6.318
2023-03-29T12:08:54.978Z,3.79
2023-03-29T12:14:59.541Z,2.808
2023-03-29T12:19:01.939Z,9.126
2023-03-29T12:21:03.169Z,5.896
2023-03-29T12:25:06.101Z,5.475
2023-03-29T12:31:09.746Z,3.369
2023-03-29T12:37:13.632Z,9.126
2023-03-29T12:41:16.599Z,12.074
2023-03-29T12:47:21.029Z,5.896
2023-03-29T12:51:23.751Z,6.037
2023-03-29T12:53:25.082Z,9.828
2023-03-29T12:57:28.563Z,6.598
2023-03-29T13:01:31.539Z,5.616
2023-03-29T13:03:32.796Z,6.739
2023-03-29T13:07:36.012Z,7.16
2023-03-29T13:13:39.049Z,7.581
2023-03-29T13:19:42.617Z,9.126
2023-03-29T13:23:45.295Z,5.194
2023-03-29T13:29:48.677Z,5.194
2023-03-29T13:33:51.536Z,9.266
2023-03-29T13:35:52.862Z,4.773
2023-03-29T13:39:55.183Z,8.845
2023-03-29T13:43:57.781Z,8.424
2023-03-29T13:45:59.359Z,7.3
2023-03-29T13:50:02.604Z,5.054
2023-03-29T13:56:06.814Z,7.16
2023-03-29T14:02:11.487Z,9.406
2023-03-29T14:06:13.457Z,6.177
2023-03-29T14:12:17.882Z,8.143
2023-03-29T14:16:20.371Z,7.441
2023-03-29T14:18:21.276Z,9.406
2023-03-29T14:22:25.355Z,8.424
2023-03-29T14:28:29.455Z,9.126
2023-03-29T14:32:31.267Z,10.389
2023-03-29T14:34:32.637Z,5.896
2023-03-29T14:38:34.713Z,6.598
2023-03-29T14:44:38.779Z,8.704
2023-03-29T14:48:41.320Z,4.352
2023-03-29T14:50:43.082Z,4.212
2023-03-29T14:54:46.076Z,6.458
2023-03-29T14:58:48.819Z,8.985
2023-03-29T15:00:49.862Z,10.53
2023-03-29T15:04:52.680Z,7.3
2023-03-29T15:10:56.948Z,7.441
2023-03-29T15:14:59.982Z,7.441
2023-03-29T15:17:01.725Z,8.424
2023-03-29T15:21:04.234Z,10.389
2023-03-29T15:27:07.544Z,7.722
2023-03-29T15:33:11.494Z,7.862
2023-03-29T15:37:13.171Z,11.512
2023-03-29T15:43:15.910Z,8.845
2023-03-29T15:47:19.338Z,9.126
2023-03-29T15:49:20.359Z,2.667
2023-03-29T15:53:24.036Z,8.002
2023-03-29T15:57:26.962Z,5.756
2023-03-29T15:59:28.337Z,7.862
2023-03-29T16:03:30.977Z,6.739
2023-03-29T16:09:34.587Z,5.475
2023-03-29T16:15:39.160Z,3.65
2023-03-29T16:19:41.781Z,6.177
2023-03-29T16:25:46.183Z,3.369
2023-03-29T16:29:49.031Z,3.088
2023-03-29T16:31:50.116Z,3.369
2023-03-29T16:35:52.096Z,3.931
2023-03-29T16:39:54.617Z,2.667
2023-03-29T16:41:55.608Z,4.492
2023-03-29T16:45:57.604Z,3.229
2023-03-29T16:50:00.583Z,1.965
2023-03-29T16:52:01.534Z,3.369
2023-03-29T16:56:03.994Z,3.088
2023-03-29T16:58:04.885Z,3.65
2023-03-29T17:00:05.886Z,3.931
2023-03-29T17:02:07.111Z,1.544
2023-03-29T17:08:10.874Z,0.421
2023-03-29T17:10:12.470Z,5.616
2023-03-29T17:14:14.993Z,6.879
2023-03-29T17:18:17.367Z,3.65
2023-03-29T17:24:21.610Z,0.702
2023-03-29T17:28:25.040Z,3.65
2023-03-29T17:30:26.195Z,2.667
2023-03-29T17:33:11.586Z,2.948
2023-03-29T17:35:12.941Z,1.544
2023-03-29T17:39:15.711Z,4.071
2023-03-29T17:45:20.177Z,0
2023-03-29T17:49:22.784Z,0.14
2023-03-29T17:51:24.271Z,0
2023-03-29T17:55:27.033Z,1.825
2023-03-29T18:01:31.316Z,0
2023-03-29T18:05:34.927Z,3.088
2023-03-29T18:07:36.414Z,5.194
2023-03-29T18:11:39.622Z,2.527
2023-03-29T18:15:42.139Z,2.246
2023-03-29T18:17:43.465Z,4.352
2023-03-29T18:21:46.405Z,0
2023-03-29T18:27:51.545Z,1.263
2023-03-29T18:31:53.668Z,0.561
2023-03-29T18:33:54.512Z,0
2023-03-29T18:37:57.332Z,0.561
2023-03-29T18:44:02.447Z,0
2023-03-29T18:48:04.483Z,0.842
2023-03-29T18:50:06.336Z,0.14
2023-03-29T18:54:09.404Z,0
2023-03-29T18:58:11.951Z,1.263
2023-03-29T19:00:13.197Z,3.369
2023-03-29T19:04:16.631Z,0.982
2023-03-29T19:10:21.540Z,1.123
2023-03-29T19:14:23.761Z,2.808
2023-03-29T19:16:24.703Z,2.386
2023-03-29T19:18:26.555Z,1.825
2023-03-29T19:20:27.802Z,1.965
2023-03-29T19:26:31.643Z,0
2023-03-29T19:32:36.276Z,0.421
2023-03-29T19:36:39.549Z,0
2023-03-29T19:42:43.303Z,0
2023-03-29T19:46:46.381Z,0
2023-03-29T19:50:49.720Z,1.263
2023-03-29T19:52:50.985Z,0
2023-03-29T19:56:53.464Z,0
2023-03-29T19:58:54.782Z,0.842
2023-03-29T20:02:57.070Z,0
2023-03-29T20:09:01.466Z,0
2023-03-29T20:15:06.136Z,0
2023-03-29T20:19:09.726Z,0.14
2023-03-29T20:25:14.089Z,1.123
2023-03-29T20:29:17.681Z,0
2023-03-29T20:31:19.384Z,0
2023-03-29T20:35:22.044Z,0
2023-03-29T20:39:25.872Z,0
2023-03-29T20:41:25.817Z,0
2023-03-29T20:45:28.000Z,0.982
2023-03-29T20:51:32.239Z,1.684
2023-03-29T20:55:35.308Z,0
2023-03-29T20:57:36.277Z,0
2023-03-29T21:01:39.481Z,0
2023-03-29T21:07:42.809Z,0
2023-03-29T21:11:45.574Z,1.544
2023-03-29T21:13:46.787Z,0.28
2023-03-29T21:17:49.792Z,0
2023-03-29T21:21:53.339Z,0
2023-03-29T21:23:54.636Z,0.702
2023-03-29T21:27:57.844Z,0.28
2023-03-29T21:34:02.009Z,0
2023-03-29T21:38:05.153Z,1.544
2023-03-29T21:40:06.630Z,1.263
2023-03-29T21:44:08.976Z,0.14
2023-03-29T21:50:14.081Z,0.14
2023-03-29T21:54:17.316Z,0
2023-03-29T21:56:18.527Z,0.421
2023-03-29T22:00:21.825Z,0
2023-03-29T22:04:35.632Z,0
2023-03-29T22:06:26.030Z,0
2023-03-29T22:10:28.600Z,0.14
2023-03-29T22:14:31.590Z,2.386
2023-03-29T22:16:33.151Z,0.842
2023-03-29T22:20:35.872Z,1.825
2023-03-29T22:22:36.793Z,0
2023-03-29T22:24:37.795Z,1.123
2023-03-29T22:26:39.528Z,0
2023-03-29T22:32:43.865Z,0
2023-03-29T22:38:48.761Z,1.825
2023-03-29T22:42:51.047Z,0
2023-03-29T22:48:55.174Z,2.106
2023-03-29T22:52:57.926Z,0
2023-03-29T22:54:59.639Z,0.842
2023-03-29T22:59:03.093Z,1.544
2023-03-29T23:03:05.743Z,2.386
2023-03-29T23:05:06.636Z,0.28
2023-03-29T23:09:09.815Z,0
2023-03-29T23:15:14.135Z,2.527
2023-03-29T23:21:18.614Z,0
2023-03-29T23:25:21.681Z,2.948
2023-03-29T23:31:26.829Z,0.28
2023-03-29T23:35:28.625Z,0.702
2023-03-29T23:37:29.801Z,0.28
2023-03-29T23:41:32.295Z,2.667
2023-03-29T23:45:35.043Z,0.421
2023-03-29T23:47:36.810Z,0
2023-03-29T23:51:40.248Z,2.527
2023-03-29T23:57:44.506Z,0
